King Salmon, AK

1:43 AM AKDT on August 27, 2016 (GMT -0800)
King Salmon | | Change Station

Elev 46 ft 58.68 °N, 156.66 °W | Updated 49 minutes ago

Partly Cloudy
Partly Cloudy
58 °F
Feels Like 58 °F
N
7
Wind Variable Wind from NW

Today
High -- | Low -- °F
--% Chance of Precip.
Yesterday
High -- | Low -- °F
Precip. -- in
Pressure 30.23 in
Visibility 10.0 miles
Clouds Few 20000 ft
Dew Point 56 °F
Humidity 93%
Rainfall 0.00 in
Snow Depth Not available.
7:15 AM 9:38 PM
Waning Crescent, 26% visible
METAR PAKN 270854Z 31006KT 10SM FEW200 14/13 A3023 RMK AO2 SLP237 T01440133 402220083 53009
Pressure 30.23 in
Visibility 10.0 miles
Clouds Few 20000 ft
Dew Point 56 °F
Humidity 93%
Rainfall 0.00 in
Snow Depth Not available.
7:15 AM 9:38 PM
Waning Crescent, 26% visible
METAR PAKN 270854Z 31006KT 10SM FEW200 14/13 A3023 RMK AO2 SLP237 T01440133 402220083 53009

10-Day Weather Forecast

Almanac

Astronomy

Aug. 27, 2016 Rise Set
Actual Time
Civil Twilight
Nautical Twilight
Astronomical Twilight
Moon
Length of Visible Light
Length of Day
Tomorrow will be .
, % of the Moon is Illuminated

Today's Extremes

State Highs State Lows

Community

WunderPhotos

Upload Photos

1,935,313 photos uploaded!

WunderBlog® & News

Nearby

Air Quality

  Air Quality AQ Index Pollutant
Not available.

Snow Depth

Station Depth Elevation

Earthquake Activity

City Distance Mag. Time & Date
Minimum magnitude displayed is 2.5.

Coastal Water Temperatures

Place Temperature

Stations

Nearby Weather Stations

Station Location Temp. Windchill Dew Point Humidity Wind Precip. Elev Updated Type
                   

Watches & Warnings

There are currently no watches in effect.